Time;durP1;ratioP1;P1;durP2;ratioP2;P2;SDS_P1;SDS_P2;PMS_P1;PMS_P2;Temp;Humidity;BMP_temperature;BMP_pressure;BME280_temperature;BME280_humidity;BME280_pressure;Samples;Min_cycle;Max_cycle;Signal;HPM_P1;HPM_P2
2023/05/10 00:01:28;;;;;;;32.85;13.63;;;12.60;99.90;;;;;;5086642;28;20102;-70
2023/05/10 00:03:59;;;;;;;41.65;14.27;;;12.60;99.90;;;;;;5086692;28;20173;-73
2023/05/10 00:06:25;;;;;;;35.15;14.18;;;12.50;99.90;;;;;;5091904;28;20103;-71
2023/05/10 00:08:51;;;;;;;35.83;14.95;;;12.50;99.90;;;;;;5087748;28;20154;-72
2023/05/10 00:11:16;;;;;;;38.20;14.77;;;12.50;99.90;;;;;;5087944;28;20032;-73
2023/05/10 00:13:45;;;;;;;37.72;13.90;;;12.50;99.90;;;;;;5088423;28;20032;-72
2023/05/10 00:16:12;;;;;;;40.05;14.20;;;12.50;99.90;;;;;;5093505;28;20024;-71
2023/05/10 00:18:38;;;;;;;44.10;15.18;;;12.40;99.90;;;;;;5086561;28;20052;-72
2023/05/10 00:21:04;;;;;;;40.47;14.57;;;12.40;99.90;;;;;;5089496;28;20062;-73
2023/05/10 00:23:30;;;;;;;40.97;15.10;;;12.40;99.90;;;;;;5091863;28;20032;-72
2023/05/10 00:25:56;;;;;;;53.15;15.40;;;12.40;99.90;;;;;;5087807;28;20054;-72
2023/05/10 00:28:21;;;;;;;39.25;14.45;;;12.40;99.90;;;;;;5088127;28;20855;-71
2023/05/10 00:30:47;;;;;;;42.28;15.02;;;12.40;99.90;;;;;;5092708;28;20032;-71
2023/05/10 00:33:12;;;;;;;48.22;15.63;;;12.40;99.90;;;;;;5088971;28;20027;-71
2023/05/10 00:35:38;;;;;;;46.08;15.95;;;12.40;99.90;;;;;;5086625;28;20028;-73
2023/05/10 00:38:06;;;;;;;42.45;14.85;;;12.50;99.90;;;;;;5101423;28;20499;-71
2023/05/10 00:40:32;;;;;;;43.42;14.07;;;12.50;99.90;;;;;;5086920;28;20085;-73
2023/05/10 00:42:59;;;;;;;42.00;14.38;;;12.50;99.90;;;;;;5091807;28;20059;-73
2023/05/10 00:45:28;;;;;;;53.60;16.85;;;12.50;99.90;;;;;;5096893;27;20029;-72
2023/05/10 00:47:54;;;;;;;48.72;15.57;;;12.60;99.90;;;;;;5099527;28;20069;-72
2023/05/10 00:50:24;;;;;;;50.42;16.17;;;12.60;99.90;;;;;;5088812;28;20544;-72
2023/05/10 00:52:50;;;;;;;47.53;15.60;;;12.60;99.90;;;;;;5086067;28;20032;-73
2023/05/10 00:55:18;;;;;;;47.15;16.35;;;12.60;99.90;;;;;;5094184;28;20663;-71
2023/05/10 00:57:44;;;;;;;55.30;16.20;;;12.60;99.90;;;;;;5087668;28;20494;-72
2023/05/10 01:00:11;;;;;;;46.85;15.45;;;12.60;99.90;;;;;;5086546;28;20024;-72
2023/05/10 01:02:36;;;;;;;48.17;15.10;;;12.60;99.90;;;;;;5086661;28;20496;-72
2023/05/10 01:05:03;;;;;;;47.95;16.00;;;12.50;99.90;;;;;;5088377;28;20077;-71
2023/05/10 01:07:29;;;;;;;49.40;16.15;;;12.50;99.90;;;;;;5087488;28;20082;-71
2023/05/10 01:09:55;;;;;;;51.88;15.95;;;12.50;99.90;;;;;;5091540;28;20388;-72
2023/05/10 01:12:21;;;;;;;44.65;14.90;;;12.50;99.90;;;;;;5087120;28;20036;-72
2023/05/10 01:14:47;;;;;;;50.83;14.65;;;12.50;99.90;;;;;;5090934;28;20056;-72
2023/05/10 01:17:13;;;;;;;40.10;14.48;;;12.40;99.90;;;;;;5094593;28;20382;-71
2023/05/10 01:19:39;;;;;;;48.92;15.32;;;12.40;99.90;;;;;;5093271;28;20040;-72
2023/05/10 01:22:10;;;;;;;43.40;13.90;;;12.40;99.90;;;;;;5091215;28;20046;-70
2023/05/10 01:24:43;;;;;;;;;;;12.40;99.90;;;;;;5086187;28;20050;-72
2023/05/10 01:27:39;;;;;;;56.95;14.95;;;12.40;99.90;;;;;;5090860;28;20396;-70
2023/05/10 01:30:20;;;;;;;51.15;15.52;;;12.40;99.90;;;;;;5084455;28;20675;-71
2023/05/10 01:33:08;;;;;;;53.45;15.57;;;12.40;99.90;;;;;;5090852;28;20122;-72
2023/05/10 01:35:55;;;;;;;52.85;16.38;;;12.50;99.90;;;;;;5090471;28;20097;-73
2023/05/10 01:38:42;;;;;;;65.15;17.05;;;12.50;99.90;;;;;;5086533;28;20062;-71
2023/05/10 01:41:25;;;;;;;73.05;17.38;;;12.50;99.90;;;;;;5087008;28;20713;-73
2023/05/10 01:44:24;;;;;;;79.97;19.20;;;12.50;99.90;;;;;;5088075;28;20020;-72
2023/05/10 01:46:57;;;;;;;70.80;18.98;;;12.50;99.90;;;;;;5086306;28;20040;-72
2023/05/10 01:49:38;;;;;;;75.15;17.98;;;12.50;99.90;;;;;;5087428;28;20055;-71
2023/05/10 01:52:17;;;;;;;66.97;16.75;;;12.50;99.90;;;;;;5091790;28;20032;-71
2023/05/10 01:54:48;;;;;;;86.28;19.52;;;12.50;99.90;;;;;;5091038;28;20488;-71
2023/05/10 01:57:17;;;;;;;79.18;18.40;;;12.50;99.90;;;;;;5096342;28;20032;-70
2023/05/10 01:59:50;;;;;;;65.40;17.83;;;12.40;99.90;;;;;;5092208;28;20039;-71
2023/05/10 02:02:19;;;;;;;71.57;17.60;;;12.50;99.90;;;;;;5092429;28;20092;-71
2023/05/10 02:04:47;;;;;;;62.15;16.90;;;12.50;99.90;;;;;;5084929;28;20044;-72
2023/05/10 02:07:13;;;;;;;72.57;18.95;;;12.50;99.90;;;;;;5086184;28;20165;-72
2023/05/10 02:09:41;;;;;;;67.38;16.80;;;12.50;99.90;;;;;;5086419;28;20032;-72
2023/05/10 02:12:08;;;;;;;72.10;18.70;;;12.50;99.90;;;;;;5086189;28;20032;-70
2023/05/10 02:14:36;;;;;;;62.13;18.15;;;12.60;99.90;;;;;;5085060;28;20024;-72
2023/05/10 02:17:05;;;;;;;62.42;18.50;;;12.60;99.90;;;;;;5086140;28;20046;-73
2023/05/10 02:19:32;;;;;;;65.95;18.77;;;12.60;99.90;;;;;;5091878;28;20036;-72
2023/05/10 02:22:00;;;;;;;49.15;17.42;;;12.60;99.90;;;;;;5079523;28;20523;-72
2023/05/10 02:24:27;;;;;;;58.25;18.75;;;12.60;99.90;;;;;;5086617;28;20055;-72
2023/05/10 02:27:03;;;;;;;49.67;17.55;;;12.60;99.90;;;;;;5092838;28;20090;-72
2023/05/10 02:29:30;;;;;;;44.55;16.67;;;12.60;99.90;;;;;;5088977;28;20044;-72
2023/05/10 02:32:00;;;;;;;57.55;18.52;;;12.60;99.90;;;;;;5087421;28;20559;-72
2023/05/10 02:34:27;;;;;;;47.30;18.35;;;12.60;99.90;;;;;;5090004;28;20036;-72
2023/05/10 02:36:56;;;;;;;57.47;19.45;;;12.60;99.90;;;;;;5085406;28;20046;-72
2023/05/10 02:39:29;;;;;;;46.50;16.40;;;12.60;99.90;;;;;;5087573;28;20043;-71
2023/05/10 02:41:59;;;;;;;60.22;19.25;;;12.60;99.90;;;;;;5086113;28;20036;-73
2023/05/10 02:44:30;;;;;;;52.85;18.98;;;12.60;99.90;;;;;;5092473;28;20082;-75
2023/05/10 02:46:57;;;;;;;51.58;18.50;;;12.60;99.90;;;;;;5085116;28;20032;-72
2023/05/10 02:49:23;;;;;;;52.47;17.70;;;12.60;99.90;;;;;;5085756;28;20036;-72
2023/05/10 02:51:53;;;;;;;48.05;17.88;;;12.60;99.90;;;;;;5086028;28;20034;-71
2023/05/10 02:54:24;;;;;;;63.50;20.13;;;12.60;99.90;;;;;;5087791;28;20128;-70
2023/05/10 02:56:54;;;;;;;61.38;19.48;;;12.60;99.90;;;;;;5084685;28;20034;-72
2023/05/10 02:59:23;;;;;;;56.30;18.15;;;12.60;99.90;;;;;;5088053;28;20127;-71
2023/05/10 03:01:55;;;;;;;56.53;18.98;;;12.60;99.90;;;;;;5087562;28;20039;-72
2023/05/10 03:04:20;;;;;;;58.35;17.83;;;12.60;99.90;;;;;;5091339;28;20040;-71
2023/05/10 03:06:46;;;;;;;64.57;18.02;;;12.60;99.90;;;;;;5089589;28;20088;-72
2023/05/10 03:09:15;;;;;;;65.18;19.05;;;12.60;99.90;;;;;;5094325;28;20028;-71
2023/05/10 03:11:53;;;;;;;63.13;18.83;;;12.60;99.90;;;;;;5099081;28;20028;-71
2023/05/10 03:14:47;;;;;;;53.80;16.40;;;12.60;99.90;;;;;;5089385;28;20028;-72
2023/05/10 03:17:29;;;;;;;64.38;18.52;;;12.60;99.90;;;;;;5082502;28;20052;-72
2023/05/10 03:20:21;;;;;;;59.97;18.90;;;12.60;99.90;;;;;;5089509;28;20031;-72
2023/05/10 03:22:55;;;;;;;58.08;17.95;;;12.60;99.90;;;;;;5086193;28;21139;-73
2023/05/10 03:25:22;;;;;;;58.05;18.48;;;12.60;99.90;;;;;;5090871;28;20111;-72
2023/05/10 03:27:48;;;;;;;58.10;17.92;;;12.60;99.90;;;;;;5088273;28;20392;-72
2023/05/10 03:30:20;;;;;;;63.92;18.13;;;12.60;99.90;;;;;;5090716;28;20024;-73
2023/05/10 03:32:49;;;;;;;55.03;18.30;;;12.60;99.90;;;;;;5087930;28;20149;-72
2023/05/10 03:35:24;;;;;;;58.10;17.20;;;12.60;99.90;;;;;;5091130;28;20035;-72
2023/05/10 03:37:49;;;;;;;66.32;19.05;;;12.60;99.90;;;;;;5087765;28;20035;-71
2023/05/10 03:40:18;;;;;;;58.88;18.67;;;12.70;99.90;;;;;;5092940;28;20040;-72
2023/05/10 03:42:43;;;;;;;63.28;18.38;;;12.70;99.90;;;;;;5091736;27;20058;-72
2023/05/10 03:45:12;;;;;;;59.00;18.67;;;12.70;99.90;;;;;;5088695;28;20024;-71
2023/05/10 03:47:37;;;;;;;53.92;16.92;;;12.70;99.90;;;;;;5089050;28;20601;-71
2023/05/10 03:50:07;;;;;;;51.55;18.45;;;12.70;99.90;;;;;;5090277;28;20123;-71
2023/05/10 03:52:33;;;;;;;53.33;18.42;;;12.70;99.90;;;;;;5091448;28;20032;-72
2023/05/10 03:54:58;;;;;;;55.60;18.17;;;12.70;99.90;;;;;;5091631;28;20032;-73
2023/05/10 03:57:24;;;;;;;54.00;17.55;;;12.70;99.90;;;;;;5088670;28;20040;-72
2023/05/10 03:59:49;;;;;;;58.38;18.17;;;12.70;99.90;;;;;;5088847;28;20171;-73
2023/05/10 04:02:15;;;;;;;52.35;17.48;;;12.80;99.90;;;;;;5089226;28;20047;-74
2023/05/10 04:04:43;;;;;;;56.42;18.25;;;12.70;99.90;;;;;;5088966;28;20046;-71
2023/05/10 04:07:12;;;;;;;51.55;18.42;;;12.70;99.90;;;;;;5088378;28;20036;-73
2023/05/10 04:09:37;;;;;;;65.88;19.77;;;12.80;99.90;;;;;;5088676;28;20044;-70
2023/05/10 04:12:09;;;;;;;59.47;20.95;;;12.70;99.90;;;;;;5086445;28;20088;-72
2023/05/10 04:14:35;;;;;;;62.00;20.75;;;12.80;99.90;;;;;;5087046;28;20047;-71
2023/05/10 04:17:03;;;;;;;68.07;20.58;;;12.80;99.90;;;;;;5089544;28;20422;-72
2023/05/10 04:19:32;;;;;;;49.15;18.27;;;12.80;99.90;;;;;;5092729;28;20040;-72
2023/05/10 04:21:58;;;;;;;43.35;18.23;;;12.80;99.90;;;;;;5091968;28;20521;-72
2023/05/10 04:24:26;;;;;;;50.65;19.05;;;12.80;99.90;;;;;;5088824;28;20119;-72
2023/05/10 04:27:01;;;;;;;55.10;18.65;;;12.80;99.90;;;;;;5091345;28;20032;-73
2023/05/10 04:29:26;;;;;;;54.05;20.17;;;12.80;99.90;;;;;;5089054;28;20493;-72
2023/05/10 04:31:53;;;;;;;51.00;20.73;;;12.80;99.90;;;;;;5086426;28;20055;-72
2023/05/10 04:34:21;;;;;;;58.03;18.58;;;12.80;99.90;;;;;;5087948;28;20484;-72
2023/05/10 04:36:47;;;;;;;49.17;19.13;;;12.80;99.90;;;;;;5091155;28;20047;-72
2023/05/10 04:39:13;;;;;;;49.90;18.90;;;12.80;99.90;;;;;;5086960;28;20499;-71
2023/05/10 04:41:41;;;;;;;46.25;16.95;;;12.80;99.90;;;;;;5085471;28;20032;-72
2023/05/10 04:44:07;;;;;;;47.70;17.38;;;12.80;99.90;;;;;;5078953;28;20020;-72
2023/05/10 04:46:33;;;;;;;53.00;20.70;;;12.90;99.90;;;;;;5085745;28;20025;-71
2023/05/10 04:48:58;;;;;;;48.72;17.92;;;12.80;99.90;;;;;;5095502;28;20109;-71
2023/05/10 04:51:24;;;;;;;59.10;20.63;;;12.90;99.90;;;;;;5088646;28;20086;-72
2023/05/10 04:53:49;;;;;;;53.40;18.55;;;12.80;99.90;;;;;;5091940;28;20043;-72
2023/05/10 04:56:18;;;;;;;60.35;19.42;;;12.80;99.90;;;;;;5088971;28;20113;-71
2023/05/10 04:58:46;;;;;;;54.63;18.15;;;12.90;99.90;;;;;;5097596;27;20040;-71
2023/05/10 05:01:18;;;;;;;52.25;19.20;;;12.80;99.90;;;;;;5087014;28;20028;-72
2023/05/10 05:03:43;;;;;;;50.95;18.40;;;12.80;99.90;;;;;;5083813;28;20042;-70
2023/05/10 05:06:09;;;;;;;57.25;18.75;;;12.80;99.90;;;;;;5088191;28;20036;-71
2023/05/10 05:08:35;;;;;;;57.00;17.70;;;12.80;99.90;;;;;;5081701;28;20073;-71
2023/05/10 05:11:03;;;;;;;55.22;17.25;;;12.70;99.90;;;;;;5087385;28;20032;-71
2023/05/10 05:13:29;;;;;;;44.67;15.23;;;12.70;99.90;;;;;;5079862;28;20032;-72
2023/05/10 05:15:54;;;;;;;45.90;17.17;;;12.70;99.90;;;;;;5087190;28;20052;-72
2023/05/10 05:18:20;;;;;;;48.83;17.30;;;12.70;99.90;;;;;;5086685;28;20499;-72
2023/05/10 05:20:51;;;;;;;53.88;17.65;;;12.70;99.90;;;;;;5086498;28;20036;-71
2023/05/10 05:23:18;;;;;;;43.95;16.08;;;12.70;99.90;;;;;;5086111;28;20038;-71
2023/05/10 05:25:43;;;;;;;47.65;15.25;;;12.70;99.90;;;;;;5083716;28;20489;-70
2023/05/10 05:28:09;;;;;;;30.75;11.93;;;12.70;99.90;;;;;;5084855;28;20077;-72
2023/05/10 05:30:34;;;;;;;35.90;12.85;;;12.70;99.90;;;;;;5083152;28;20100;-71
2023/05/10 05:33:00;;;;;;;27.75;11.50;;;12.60;99.90;;;;;;5086526;28;20040;-70
2023/05/10 05:35:26;;;;;;;25.65;10.80;;;12.60;99.90;;;;;;5085538;28;20064;-71
2023/05/10 05:37:51;;;;;;;24.25;9.57;;;12.60;99.90;;;;;;5082395;28;20400;-70
2023/05/10 05:40:17;;;;;;;27.45;10.68;;;12.60;99.90;;;;;;5085249;28;20145;-72
2023/05/10 05:42:49;;;;;;;26.58;10.77;;;12.60;99.90;;;;;;5083807;28;20063;-71
2023/05/10 05:45:17;;;;;;;24.67;10.20;;;12.70;99.90;;;;;;5083947;28;20028;-71
2023/05/10 05:47:43;;;;;;;31.95;11.32;;;12.60;99.90;;;;;;5083449;28;20032;-71
2023/05/10 05:50:11;;;;;;;25.85;10.30;;;12.60;99.90;;;;;;5086948;28;20062;-71
2023/05/10 05:52:37;;;;;;;29.10;9.80;;;12.60;99.90;;;;;;5083114;28;20540;-70
2023/05/10 05:55:03;;;;;;;24.67;9.45;;;12.60;99.90;;;;;;5084625;28;20108;-72
2023/05/10 05:57:29;;;;;;;28.02;10.40;;;12.70;99.90;;;;;;5086588;28;20146;-73
2023/05/10 05:59:54;;;;;;;22.40;8.43;;;12.70;99.90;;;;;;5088139;28;20413;-72
2023/05/10 06:02:20;;;;;;;26.33;9.18;;;12.80;99.90;;;;;;5082449;28;20040;-71
2023/05/10 06:04:46;;;;;;;22.00;9.60;;;12.80;99.90;;;;;;5085219;28;20499;-71
2023/05/10 06:07:11;;;;;;;20.65;8.57;;;12.80;99.90;;;;;;5086457;28;20024;-71
2023/05/10 06:09:37;;;;;;;17.25;8.02;;;12.80;99.90;;;;;;5085078;28;20101;-72
2023/05/10 06:12:02;;;;;;;22.00;8.18;;;12.80;99.90;;;;;;5091505;28;20059;-71
2023/05/10 06:14:28;;;;;;;19.38;7.38;;;12.80;99.90;;;;;;5081808;28;20084;-72
2023/05/10 06:16:54;;;;;;;18.58;6.47;;;12.80;99.90;;;;;;5083079;28;21022;-72
2023/05/10 06:19:19;;;;;;;15.57;6.00;;;12.80;99.90;;;;;;5085725;28;20048;-71
2023/05/10 06:21:45;;;;;;;15.07;6.43;;;12.90;99.90;;;;;;5084814;28;20039;-71
2023/05/10 06:24:10;;;;;;;14.65;5.78;;;12.90;99.90;;;;;;5084260;28;20503;-73
2023/05/10 06:26:36;;;;;;;18.27;6.18;;;13.00;99.90;;;;;;5083498;28;20047;-73
2023/05/10 06:29:02;;;;;;;15.65;6.10;;;13.00;99.90;;;;;;5087569;28;20092;-71
2023/05/10 06:31:27;;;;;;;14.38;6.68;;;13.10;99.90;;;;;;5081499;28;20450;-72
2023/05/10 06:33:59;;;;;;;14.63;5.63;;;13.00;99.90;;;;;;5082671;28;20031;-72
2023/05/10 06:36:26;;;;;;;13.95;5.43;;;13.10;99.90;;;;;;5090494;28;20040;-71
2023/05/10 06:38:51;;;;;;;17.50;5.43;;;13.10;99.90;;;;;;5086825;28;20113;-72
2023/05/10 06:41:17;;;;;;;13.20;5.90;;;13.20;99.90;;;;;;5087978;28;20150;-71
2023/05/10 06:43:45;;;;;;;14.68;4.95;;;13.30;99.90;;;;;;5088762;28;20138;-72
2023/05/10 06:46:11;;;;;;;11.98;5.22;;;13.40;99.90;;;;;;5088705;28;20043;-71
2023/05/10 06:48:36;;;;;;;9.35;4.80;;;13.50;99.90;;;;;;5089335;28;20019;-71
2023/05/10 06:51:02;;;;;;;11.38;4.43;;;14.00;99.90;;;;;;5086452;28;20732;-72
2023/05/10 06:53:28;;;;;;;9.23;3.60;;;14.70;99.90;;;;;;5091438;28;20701;-71
2023/05/10 06:55:53;;;;;;;8.50;4.03;;;15.30;99.90;;;;;;5086658;28;20024;-71
2023/05/10 06:58:19;;;;;;;8.02;3.80;;;15.50;99.90;;;;;;5087329;28;20032;-71
2023/05/10 07:00:47;;;;;;;7.88;3.55;;;15.50;99.90;;;;;;5087926;28;20024;-70
2023/05/10 07:03:13;;;;;;;8.82;4.07;;;15.30;99.90;;;;;;5088749;28;20060;-70
2023/05/10 07:05:38;;;;;;;7.70;3.40;;;15.20;99.90;;;;;;5090176;28;20120;-70
2023/05/10 07:08:04;;;;;;;8.35;4.40;;;15.10;99.90;;;;;;5087642;28;20032;-71
2023/05/10 07:10:29;;;;;;;7.35;3.47;;;15.00;99.90;;;;;;5089795;28;20060;-71
2023/05/10 07:12:55;;;;;;;6.80;3.33;;;14.80;99.90;;;;;;5090400;28;20027;-71
2023/05/10 07:15:21;;;;;;;10.05;4.13;;;14.70;99.90;;;;;;5087710;28;20174;-72
2023/05/10 07:17:46;;;;;;;11.05;4.18;;;14.50;99.90;;;;;;5089634;28;20033;-71
2023/05/10 07:20:12;;;;;;;9.70;3.83;;;14.40;99.90;;;;;;5085735;28;20043;-72
2023/05/10 07:22:38;;;;;;;10.02;3.67;;;14.30;99.90;;;;;;5084670;28;20093;-72
2023/05/10 07:25:04;;;;;;;6.80;3.22;;;14.20;99.90;;;;;;5091911;28;20047;-72
2023/05/10 07:27:30;;;;;;;8.10;3.53;;;14.20;99.90;;;;;;5088051;28;20562;-72
2023/05/10 07:29:58;;;;;;;5.80;3.33;;;14.10;99.90;;;;;;5087652;28;20032;-71
2023/05/10 07:32:24;;;;;;;7.72;3.85;;;14.10;99.90;;;;;;5089937;28;20043;-71
2023/05/10 07:34:49;;;;;;;9.23;4.38;;;14.10;99.90;;;;;;5084355;28;20480;-71
2023/05/10 07:37:15;;;;;;;9.90;4.20;;;14.20;99.90;;;;;;5089081;28;20028;-71
2023/05/10 07:39:41;;;;;;;9.40;4.32;;;14.10;99.90;;;;;;5086607;28;20032;-71
2023/05/10 07:42:07;;;;;;;9.25;4.28;;;14.20;99.90;;;;;;5084901;28;20078;-71
2023/05/10 07:44:32;;;;;;;8.65;4.10;;;14.20;99.90;;;;;;5083820;28;20020;-73
2023/05/10 07:47:04;;;;;;;7.00;3.17;;;14.30;99.90;;;;;;5083608;28;20542;-71
2023/05/10 07:49:29;;;;;;;9.38;3.55;;;14.40;99.90;;;;;;5087388;28;20036;-72
2023/05/10 07:51:55;;;;;;;8.35;3.80;;;14.40;99.90;;;;;;5085271;28;20039;-71
2023/05/10 07:54:21;;;;;;;8.00;3.38;;;14.40;99.90;;;;;;5089571;28;20773;-71
2023/05/10 07:56:50;;;;;;;8.18;3.05;;;14.40;99.90;;;;;;5085541;28;20548;-71
2023/05/10 07:59:17;;;;;;;7.93;3.53;;;14.40;99.90;;;;;;5088303;28;20094;-72
2023/05/10 08:01:43;;;;;;;5.47;3.20;;;14.40;99.90;;;;;;5085026;28;20035;-70
2023/05/10 08:04:08;;;;;;;6.88;3.30;;;14.30;99.90;;;;;;5084677;28;20510;-70
2023/05/10 08:06:34;;;;;;;8.75;3.60;;;14.30;99.90;;;;;;5087175;28;20040;-71
2023/05/10 08:09:03;;;;;;;7.97;3.97;;;14.20;99.90;;;;;;5086446;28;20085;-72
2023/05/10 08:11:29;;;;;;;6.65;2.97;;;14.20;99.90;;;;;;5085016;28;20395;-71
2023/05/10 08:13:54;;;;;;;9.07;3.55;;;14.10;99.90;;;;;;5087398;28;20032;-71
2023/05/10 08:16:20;;;;;;;6.75;2.80;;;14.00;99.90;;;;;;5085380;28;20047;-70
2023/05/10 08:18:51;;;;;;;8.48;3.53;;;14.00;99.90;;;;;;5086376;28;20033;-71
2023/05/10 08:21:20;;;;;;;6.30;2.88;;;14.10;99.90;;;;;;5085258;28;20063;-70
2023/05/10 08:23:46;;;;;;;6.00;2.97;;;14.10;99.90;;;;;;5089172;28;20093;-72
2023/05/10 08:26:14;;;;;;;7.15;3.25;;;14.20;99.90;;;;;;5086082;28;20029;-70
2023/05/10 08:28:40;;;;;;;6.18;2.65;;;14.30;99.90;;;;;;5083141;28;20051;-70
2023/05/10 08:31:05;;;;;;;8.23;2.80;;;14.20;99.90;;;;;;5091749;28;20535;-71
2023/05/10 08:33:31;;;;;;;5.88;2.75;;;14.30;99.90;;;;;;5090182;28;20058;-70
2023/05/10 08:35:57;;;;;;;7.68;2.83;;;14.40;99.90;;;;;;5084179;28;20031;-70
2023/05/10 08:38:22;;;;;;;4.40;2.30;;;14.40;99.90;;;;;;5089346;28;20515;-71
2023/05/10 08:40:50;;;;;;;5.30;2.20;;;14.40;99.90;;;;;;5084524;28;20043;-71
2023/05/10 08:43:16;;;;;;;6.38;2.90;;;14.50;99.90;;;;;;5086619;28;20868;-71
2023/05/10 08:45:46;;;;;;;5.88;2.50;;;14.60;99.90;;;;;;5085953;28;20031;-71
2023/05/10 08:48:15;;;;;;;4.40;2.17;;;14.70;99.90;;;;;;5085160;28;20020;-71
2023/05/10 08:50:42;;;;;;;5.07;2.00;;;14.80;99.90;;;;;;5088416;28;20716;-71
2023/05/10 08:53:18;;;;;;;4.55;2.28;;;14.90;99.90;;;;;;5085973;28;20032;-70
2023/05/10 08:55:44;;;;;;;4.43;2.20;;;15.10;99.90;;;;;;5090003;28;20032;-71
2023/05/10 08:58:10;;;;;;;4.05;1.75;;;15.20;99.90;;;;;;5083474;28;20035;-71
2023/05/10 09:00:39;;;;;;;5.63;1.98;;;15.40;99.90;;;;;;5083397;28;20028;-71
2023/05/10 09:03:06;;;;;;;5.95;2.08;;;15.70;99.90;;;;;;5085387;28;20036;-72
2023/05/10 09:05:31;;;;;;;2.40;1.30;;;15.90;99.90;;;;;;5081946;28;20036;-71
2023/05/10 09:08:00;;;;;;;2.75;1.40;;;16.10;99.90;;;;;;5083403;28;20032;-70
2023/05/10 09:10:28;;;;;;;2.90;1.30;;;16.20;99.90;;;;;;5080739;28;20111;-71
2023/05/10 09:12:58;;;;;;;2.78;1.25;;;16.30;99.90;;;;;;5077566;28;20428;-71
2023/05/10 09:15:27;;;;;;;2.60;1.15;;;16.30;99.90;;;;;;5085283;28;20036;-70
2023/05/10 09:17:54;;;;;;;4.28;1.40;;;16.10;99.90;;;;;;5083045;28;20078;-72
2023/05/10 09:20:22;;;;;;;2.55;1.60;;;16.00;99.90;;;;;;5086305;28;20067;-72
2023/05/10 09:22:48;;;;;;;1.38;0.90;;;16.00;99.90;;;;;;5091519;28;20630;-72
2023/05/10 09:25:15;;;;;;;2.67;0.98;;;15.90;99.90;;;;;;5087094;28;20036;-70
2023/05/10 09:27:45;;;;;;;3.28;1.27;;;15.90;99.90;;;;;;5083969;28;20040;-71
2023/05/10 09:30:15;;;;;;;4.73;1.13;;;15.80;99.90;;;;;;5088885;28;20032;-72
2023/05/10 09:32:48;;;;;;;2.03;1.13;;;15.80;99.90;;;;;;5085768;28;20487;-71
2023/05/10 09:35:19;;;;;;;1.75;0.90;;;15.70;99.90;;;;;;5082858;28;20039;-71
2023/05/10 09:37:47;;;;;;;4.22;1.55;;;15.70;99.90;;;;;;5082001;28;20036;-70
2023/05/10 09:40:21;;;;;;;4.25;1.98;;;15.70;99.90;;;;;;5084053;28;20484;-70
2023/05/10 09:42:56;;;;;;;6.00;1.83;;;15.60;99.90;;;;;;5083133;28;20036;-70
2023/05/10 09:45:23;;;;;;;5.72;2.45;;;15.60;99.90;;;;;;5082763;28;20031;-72
2023/05/10 09:47:49;;;;;;;4.53;1.92;;;15.40;99.90;;;;;;5085482;28;20701;-71
2023/05/10 09:50:15;;;;;;;5.93;2.10;;;15.40;99.90;;;;;;5083958;28;20120;-71
2023/05/10 09:53:03;;;;;;;4.50;1.80;;;15.40;99.90;;;;;;5081619;28;20651;-71
2023/05/10 09:55:45;;;;;;;2.17;1.00;;;15.50;99.90;;;;;;5082416;28;20031;-72
2023/05/10 09:58:12;;;;;;;4.90;1.80;;;15.50;99.90;;;;;;5084136;28;20028;-71
2023/05/10 10:00:40;;;;;;;4.20;1.45;;;15.60;99.90;;;;;;5085982;28;20050;-71
2023/05/10 10:03:06;;;;;;;3.33;1.58;;;15.70;99.90;;;;;;5084042;28;20539;-71
2023/05/10 10:05:33;;;;;;;3.08;1.75;;;15.80;99.90;;;;;;5079826;28;20035;-71
2023/05/10 10:08:00;;;;;;;2.80;1.92;;;15.90;99.90;;;;;;5086580;28;20035;-71
2023/05/10 10:10:27;;;;;;;4.20;1.92;;;16.00;99.90;;;;;;5082626;28;20038;-71
2023/05/10 10:12:54;;;;;;;4.28;2.58;;;16.00;99.90;;;;;;5083164;28;20853;-71
2023/05/10 10:15:21;;;;;;;8.90;2.40;;;16.00;99.90;;;;;;5084958;28;20438;-71
2023/05/10 10:17:48;;;;;;;5.15;2.42;;;16.00;99.90;;;;;;5081880;28;20085;-71
2023/05/10 10:20:15;;;;;;;5.20;2.45;;;16.00;99.90;;;;;;5084291;28;20036;-71
2023/05/10 10:22:41;;;;;;;4.88;2.30;;;16.10;99.90;;;;;;5084217;28;20477;-71
2023/05/10 10:25:08;;;;;;;4.93;2.42;;;16.20;99.90;;;;;;5086268;28;20038;-71
2023/05/10 10:27:52;;;;;;;4.05;1.92;;;16.20;99.90;;;;;;5083222;28;20105;-72
2023/05/10 10:30:36;;;;;;;5.45;2.22;;;16.50;99.90;;;;;;5084505;28;20111;-71
2023/05/10 10:33:20;;;;;;;4.65;2.22;;;16.60;99.90;;;;;;5080513;28;20664;-71
2023/05/10 10:35:46;;;;;;;6.93;1.95;;;16.80;99.90;;;;;;5083053;28;20044;-71
2023/05/10 10:38:13;;;;;;;3.75;1.67;;;16.90;99.90;;;;;;5082533;28;20520;-71
2023/05/10 10:40:39;;;;;;;2.85;1.35;;;17.20;99.90;;;;;;5081606;28;20583;-71
2023/05/10 10:43:25;;;;;;;4.65;1.50;;;17.40;99.90;;;;;;5081314;28;20123;-71
2023/05/10 10:46:13;;;;;;;2.60;1.30;;;17.50;99.90;;;;;;5086984;28;20585;-72
2023/05/10 10:48:48;;;;;;;2.63;1.55;;;17.50;99.90;;;;;;5083927;28;20066;-71
2023/05/10 10:51:14;;;;;;;5.88;1.65;;;17.50;99.90;;;;;;5084386;28;20039;-72
2023/05/10 10:53:41;;;;;;;4.22;1.38;;;17.50;99.90;;;;;;5088594;28;20109;-71
2023/05/10 10:56:11;;;;;;;4.70;1.70;;;17.40;99.90;;;;;;5082906;28;20065;-72
2023/05/10 10:58:39;;;;;;;4.80;1.73;;;17.50;99.90;;;;;;5080663;28;20051;-71
2023/05/10 11:01:15;;;;;;;3.58;1.15;;;17.60;99.90;;;;;;5082761;28;20054;-72
2023/05/10 11:03:54;;;;;;;3.15;1.40;;;17.40;99.90;;;;;;5083976;28;20046;-70
2023/05/10 11:06:29;;;;;;;2.92;1.33;;;17.40;99.90;;;;;;5087187;28;20039;-72
2023/05/10 11:08:59;;;;;;;3.45;0.98;;;17.40;99.90;;;;;;5083789;28;20674;-72
2023/05/10 11:11:25;;;;;;;3.78;1.08;;;17.50;99.90;;;;;;5082053;28;20082;-72
2023/05/10 11:13:51;;;;;;;4.20;1.10;;;17.60;99.90;;;;;;5081353;28;20028;-72
2023/05/10 11:16:23;;;;;;;2.00;1.20;;;17.70;99.90;;;;;;5079527;28;20774;-72
2023/05/10 11:19:03;;;;;;;2.55;1.17;;;17.90;99.90;;;;;;5082444;28;20036;-73
2023/05/10 11:21:32;;;;;;;3.78;1.38;;;18.00;99.90;;;;;;5116422;27;20028;-71
2023/05/10 11:24:00;;;;;;;3.07;1.33;;;18.10;99.90;;;;;;5088142;28;20114;-72
2023/05/10 11:26:31;;;;;;;3.55;1.13;;;18.10;99.90;;;;;;5086729;28;20274;-72
2023/05/10 11:29:01;;;;;;;2.15;1.02;;;18.20;99.90;;;;;;5086700;28;20412;-70
2023/05/10 11:31:30;;;;;;;3.35;1.33;;;18.50;99.90;;;;;;5086630;28;20423;-71
2023/05/10 11:34:01;;;;;;;7.00;1.58;;;18.80;99.90;;;;;;5086919;28;20035;-71
2023/05/10 11:36:34;;;;;;;1.67;0.98;;;18.80;99.90;;;;;;5085206;28;20032;-71
2023/05/10 11:39:00;;;;;;;2.22;1.08;;;19.00;99.90;;;;;;5088708;28;20107;-73
2023/05/10 11:41:27;;;;;;;2.72;1.17;;;19.00;99.90;;;;;;5090070;28;20135;-72
2023/05/10 11:43:54;;;;;;;3.08;1.45;;;19.10;99.90;;;;;;5087207;28;20032;-71
2023/05/10 11:46:22;;;;;;;2.92;1.50;;;18.90;99.90;;;;;;5090440;28;20040;-72
2023/05/10 11:48:53;;;;;;;2.60;1.65;;;18.70;99.90;;;;;;5098932;28;22670;-71
2023/05/10 11:51:27;;;;;;;4.03;2.05;;;18.50;99.90;;;;;;5088004;28;20431;-72
2023/05/10 11:53:59;;;;;;;3.58;1.88;;;18.20;99.90;;;;;;5096586;28;20024;-72
2023/05/10 11:56:26;;;;;;;3.05;1.85;;;17.90;99.90;;;;;;5091192;28;20043;-70
2023/05/10 11:59:04;;;;;;;3.10;2.03;;;17.60;99.90;;;;;;5091071;28;20387;-70
2023/05/10 12:01:30;;;;;;;3.03;1.80;;;17.40;99.90;;;;;;5126787;27;20109;-71
2023/05/10 12:03:59;;;;;;;5.93;2.20;;;17.30;99.90;;;;;;5096698;28;20024;-72
2023/05/10 12:06:31;;;;;;;5.43;2.13;;;17.10;99.90;;;;;;5094586;28;20105;-71
2023/05/10 12:09:06;;;;;;;4.47;2.58;;;17.00;99.90;;;;;;5090851;28;20544;-71
2023/05/10 12:11:31;;;;;;;6.45;2.58;;;16.80;99.90;;;;;;5095004;28;20122;-71
2023/05/10 12:13:58;;;;;;;8.82;2.95;;;16.40;99.90;;;;;;5092226;28;20040;-71
2023/05/10 12:16:29;;;;;;;6.53;3.33;;;16.20;99.90;;;;;;5096907;28;20036;-71
2023/05/10 12:18:57;;;;;;;9.77;3.53;;;15.90;99.90;;;;;;5090551;28;20036;-71
2023/05/10 12:21:28;;;;;;;7.63;2.85;;;15.60;99.90;;;;;;5093999;28;20040;-71
2023/05/10 12:24:00;;;;;;;8.90;4.03;;;15.30;99.90;;;;;;5090051;28;20506;-71
2023/05/10 12:26:29;;;;;;;17.92;4.38;;;15.20;99.90;;;;;;5093894;28;20402;-71
2023/05/10 12:29:11;;;;;;;11.53;4.67;;;14.90;99.90;;;;;;5089081;28;20035;-70
2023/05/10 12:31:56;;;;;;;14.90;4.65;;;14.80;99.90;;;;;;5087202;28;20066;-73
2023/05/10 12:34:30;;;;;;;10.13;4.45;;;14.60;99.90;;;;;;5093761;28;20499;-71
2023/05/10 12:36:56;;;;;;;13.68;4.60;;;14.60;99.90;;;;;;5094095;28;20040;-71
2023/05/10 12:39:24;;;;;;;22.90;4.78;;;14.60;99.90;;;;;;5094322;28;20028;-70
2023/05/10 12:41:51;;;;;;;14.32;5.25;;;14.50;99.90;;;;;;5094028;28;20043;-70
2023/05/10 12:44:22;;;;;;;11.82;4.78;;;14.50;99.90;;;;;;5094023;28;20117;-71